TUCK weather

Tuckers Field
Concord, Arkansas, United States

Public forecast

Using degrees Fahrenheit for public forecast. Weather courtesy of forecast.io.

METAR (pilot weather report)

Closest report is Batesville Regional Airport, 11.8 nm (21.9 km) ENE. Retrieved 2019/09/20 17:40 UTC (0 seconds ago):

KBVX 201740Z AUTO 22005KT 10SM SCT026 BKN060 27/23 A3013 RMK AO2 LTG DSNT NE RAB15E39 P0000

TAF (pilot weather forecast)

Closest forecast is Little Rock Air Force Base, 45.6 nm (84.5 km) SSW. Retrieved 2019/09/20 15:57 UTC (1 hour ago):

TAF TAF KLRF 201500Z 2015/2121 16008KT 9999 BKN010 BKN040 OVC150 QNH3008INS BECMG 2016/2017 18008KT 8000 -SHRA BKN010 BKN040 OVC150 QNH3008INS TEMPO 2017/2023 18015G25KT 8000 TSRA BKN010CB OVC040 BECMG 2023/2024 17006KT 9999 NSW SCT020 SCT040 OVC100 QNH3010INS BECMG 2114/2115 18010G15KT 9999 BKN025 OVC050 QNH3008INS TX29/2115Z TN21/2112Z